This is the latest recevied weather packets stored in our database for station/object VE2XOX. If no packets are shown the sender has not sent any weather packets the latest 10 day(s).
| Time | Temp. | Humidity | Pressure | Rain* | Wind** | Luminosity | Snow |
|---|---|---|---|---|---|---|---|
| 1777511431 | 12.78° C | 64% | 1008 hPa | 0 mm | - | - | - |
| 1777511118 | 12.78° C | 64% | 1008 hPa | 0 mm | - | - | - |
| 1777510823 | 12.78° C | 63% | 1008 hPa | 0 mm | - | - | - |
| 1777510536 | 13.33° C | 61% | 1007.9 hPa | 0 mm | - | - | - |
| 1777510219 | 13.33° C | 61% | 1007.9 hPa | 0 mm | - | - | - |
| 1777509923 | 13.33° C | 62% | 1007.8 hPa | 0 mm | - | - | - |
| 1777509633 | 13.33° C | 62% | 1007.7 hPa | 0 mm | - | - | - |
| 1777509319 | 13.33° C | 63% | 1007.7 hPa | 0 mm | - | - | - |
| 1777509029 | 13.89° C | 63% | 1007.8 hPa | 0 mm | - | - | - |
| 1777508714 | 13.89° C | 63% | 1007.8 hPa | 0 mm | - | - | - |
| 1777508130 | 14.44° C | 62% | 1007.6 hPa | 0 mm | - | - | - |
| 1777507529 | 14.44° C | 61% | 1007.6 hPa | 0 mm | - | - | - |
| 1777505727 | 15.56° C | 58% | 1007.6 hPa | 0 mm | - | - | - |
| 1777502429 | 16.67° C | 51% | 1008.1 hPa | 0 mm | - | - | - |
| 1777500018 | 17.22° C | 48% | 1008.2 hPa | 0 mm | - | - | - |
| 1777499417 | 17.22° C | 48% | 1008.3 hPa | 0 mm | - | - | - |
| 1777494919 | 17.78° C | 43% | 1008.4 hPa | 0 mm | - | - | - |
| 1777494335 | 17.78° C | 43% | 1008.5 hPa | 0 mm | - | - | - |
| 1777493122 | 18.33° C | 43% | 1008.5 hPa | 0 mm | - | - | - |
| 1777491027 | 19.44° C | 38% | 1008.5 hPa | 0 mm | - | - | - |
| 1777487722 | 20° C | 35% | 1008.9 hPa | 0 mm | - | - | - |
| 1777484114 | 20.56° C | 35% | 1009.4 hPa | 0 mm | - | - | - |
| 1777483816 | 20° C | 36% | 1009.5 hPa | 0 mm | - | - | - |
| 1777482920 | 20° C | 36% | 1009.7 hPa | 0 mm | - | - | - |
| 1777482313 | 19.44° C | 37% | 1009.8 hPa | 0 mm | - | - | - |
* Rain latest hour (hover to see other rain measurements)
** Current wind speed in m/s (hover to see current wind gust speed)